sensor_id;sensor_type;location;lat;lon;timestamp;P1;durP1;ratioP1;P2;durP2;ratioP2
4274;SDS011;2151;50.988;11.068;2023-04-03T00:01:53;130.77;;;6.80;;
4274;SDS011;2151;50.988;11.068;2023-04-03T00:04:19;133.30;;;7.50;;
4274;SDS011;2151;50.988;11.068;2023-04-03T00:06:46;139.57;;;7.27;;
4274;SDS011;2151;50.988;11.068;2023-04-03T00:09:12;130.57;;;7.30;;
4274;SDS011;2151;50.988;11.068;2023-04-03T00:11:39;145.33;;;9.00;;
4274;SDS011;2151;50.988;11.068;2023-04-03T00:14:05;131.33;;;7.53;;
4274;SDS011;2151;50.988;11.068;2023-04-03T00:16:32;127.70;;;6.93;;
4274;SDS011;2151;50.988;11.068;2023-04-03T00:18:59;136.30;;;8.10;;
4274;SDS011;2151;50.988;11.068;2023-04-03T00:21:25;132.80;;;6.90;;
4274;SDS011;2151;50.988;11.068;2023-04-03T00:23:52;129.47;;;7.20;;
4274;SDS011;2151;50.988;11.068;2023-04-03T00:26:19;132.67;;;8.00;;
4274;SDS011;2151;50.988;11.068;2023-04-03T00:28:46;131.03;;;7.67;;
4274;SDS011;2151;50.988;11.068;2023-04-03T00:31:14;129.27;;;7.20;;
4274;SDS011;2151;50.988;11.068;2023-04-03T00:33:42;131.37;;;7.20;;
4274;SDS011;2151;50.988;11.068;2023-04-03T00:36:09;133.30;;;7.73;;
4274;SDS011;2151;50.988;11.068;2023-04-03T00:38:36;134.57;;;7.50;;
4274;SDS011;2151;50.988;11.068;2023-04-03T00:41:03;135.17;;;7.40;;
4274;SDS011;2151;50.988;11.068;2023-04-03T00:43:30;134.40;;;7.47;;
4274;SDS011;2151;50.988;11.068;2023-04-03T00:45:58;135.57;;;7.67;;
4274;SDS011;2151;50.988;11.068;2023-04-03T00:48:32;131.30;;;7.80;;
4274;SDS011;2151;50.988;11.068;2023-04-03T00:51:03;133.97;;;7.90;;
4274;SDS011;2151;50.988;11.068;2023-04-03T00:53:34;134.00;;;7.17;;
4274;SDS011;2151;50.988;11.068;2023-04-03T00:56:05;135.40;;;8.03;;
4274;SDS011;2151;50.988;11.068;2023-04-03T00:58:34;137.17;;;7.90;;
4274;SDS011;2151;50.988;11.068;2023-04-03T01:01:05;132.80;;;7.60;;
4274;SDS011;2151;50.988;11.068;2023-04-03T01:03:33;132.63;;;7.53;;
4274;SDS011;2151;50.988;11.068;2023-04-03T01:06:00;132.17;;;7.33;;
4274;SDS011;2151;50.988;11.068;2023-04-03T01:08:26;135.40;;;8.80;;
4274;SDS011;2151;50.988;11.068;2023-04-03T01:10:53;131.67;;;8.00;;
4274;SDS011;2151;50.988;11.068;2023-04-03T01:13:29;133.63;;;7.90;;
4274;SDS011;2151;50.988;11.068;2023-04-03T01:15:57;129.67;;;7.20;;
4274;SDS011;2151;50.988;11.068;2023-04-03T01:18:27;144.00;;;8.10;;
4274;SDS011;2151;50.988;11.068;2023-04-03T01:21:10;133.87;;;8.13;;
4274;SDS011;2151;50.988;11.068;2023-04-03T01:26:19;131.27;;;7.97;;
4274;SDS011;2151;50.988;11.068;2023-04-03T01:28:46;141.27;;;8.00;;
4274;SDS011;2151;50.988;11.068;2023-04-03T01:31:15;135.17;;;7.90;;
4274;SDS011;2151;50.988;11.068;2023-04-03T01:33:47;136.60;;;8.50;;
4274;SDS011;2151;50.988;11.068;2023-04-03T01:36:15;135.90;;;7.87;;
4274;SDS011;2151;50.988;11.068;2023-04-03T01:38:44;135.47;;;9.13;;
4274;SDS011;2151;50.988;11.068;2023-04-03T01:41:10;138.80;;;8.93;;
4274;SDS011;2151;50.988;11.068;2023-04-03T01:43:37;134.20;;;8.10;;
4274;SDS011;2151;50.988;11.068;2023-04-03T01:46:04;135.10;;;8.10;;
4274;SDS011;2151;50.988;11.068;2023-04-03T01:48:30;134.97;;;8.20;;
4274;SDS011;2151;50.988;11.068;2023-04-03T01:50:57;134.90;;;8.10;;
4274;SDS011;2151;50.988;11.068;2023-04-03T01:53:23;135.23;;;8.80;;
4274;SDS011;2151;50.988;11.068;2023-04-03T01:55:50;136.30;;;8.27;;
4274;SDS011;2151;50.988;11.068;2023-04-03T01:58:17;136.00;;;8.03;;
4274;SDS011;2151;50.988;11.068;2023-04-03T02:00:43;133.57;;;8.17;;
4274;SDS011;2151;50.988;11.068;2023-04-03T02:03:09;132.67;;;8.50;;
4274;SDS011;2151;50.988;11.068;2023-04-03T02:05:36;135.77;;;8.47;;
4274;SDS011;2151;50.988;11.068;2023-04-03T02:08:03;135.43;;;8.40;;
4274;SDS011;2151;50.988;11.068;2023-04-03T02:10:30;133.47;;;8.17;;
4274;SDS011;2151;50.988;11.068;2023-04-03T02:12:57;136.77;;;8.27;;
4274;SDS011;2151;50.988;11.068;2023-04-03T02:15:23;132.60;;;8.30;;
4274;SDS011;2151;50.988;11.068;2023-04-03T02:17:50;137.60;;;7.80;;
4274;SDS011;2151;50.988;11.068;2023-04-03T02:20:17;133.87;;;8.30;;
4274;SDS011;2151;50.988;11.068;2023-04-03T02:22:43;133.17;;;7.50;;
4274;SDS011;2151;50.988;11.068;2023-04-03T02:25:10;131.60;;;7.77;;
4274;SDS011;2151;50.988;11.068;2023-04-03T02:27:36;132.77;;;7.60;;
4274;SDS011;2151;50.988;11.068;2023-04-03T02:30:03;133.77;;;7.77;;
4274;SDS011;2151;50.988;11.068;2023-04-03T02:32:31;133.43;;;7.77;;
4274;SDS011;2151;50.988;11.068;2023-04-03T02:34:58;136.30;;;8.10;;
4274;SDS011;2151;50.988;11.068;2023-04-03T02:37:24;137.60;;;8.47;;
4274;SDS011;2151;50.988;11.068;2023-04-03T02:39:51;136.00;;;7.87;;
4274;SDS011;2151;50.988;11.068;2023-04-03T02:42:18;135.20;;;8.10;;
4274;SDS011;2151;50.988;11.068;2023-04-03T02:44:44;134.20;;;8.07;;
4274;SDS011;2151;50.988;11.068;2023-04-03T02:47:11;131.90;;;8.00;;
4274;SDS011;2151;50.988;11.068;2023-04-03T02:49:37;134.97;;;7.93;;
4274;SDS011;2151;50.988;11.068;2023-04-03T02:52:04;134.70;;;8.10;;
4274;SDS011;2151;50.988;11.068;2023-04-03T02:54:30;133.17;;;8.13;;
4274;SDS011;2151;50.988;11.068;2023-04-03T02:56:57;139.63;;;8.50;;
4274;SDS011;2151;50.988;11.068;2023-04-03T02:59:24;133.20;;;8.30;;
4274;SDS011;2151;50.988;11.068;2023-04-03T03:01:51;134.87;;;8.33;;
4274;SDS011;2151;50.988;11.068;2023-04-03T03:04:17;133.37;;;8.27;;
4274;SDS011;2151;50.988;11.068;2023-04-03T03:06:44;136.00;;;8.37;;
4274;SDS011;2151;50.988;11.068;2023-04-03T03:09:12;133.13;;;7.90;;
4274;SDS011;2151;50.988;11.068;2023-04-03T03:11:39;133.67;;;8.43;;
4274;SDS011;2151;50.988;11.068;2023-04-03T03:14:06;142.07;;;8.40;;
4274;SDS011;2151;50.988;11.068;2023-04-03T03:16:32;133.77;;;8.47;;
4274;SDS011;2151;50.988;11.068;2023-04-03T03:18:59;133.87;;;8.10;;
4274;SDS011;2151;50.988;11.068;2023-04-03T03:21:26;134.20;;;8.20;;
4274;SDS011;2151;50.988;11.068;2023-04-03T03:23:52;135.37;;;8.30;;
4274;SDS011;2151;50.988;11.068;2023-04-03T03:26:19;132.57;;;8.33;;
4274;SDS011;2151;50.988;11.068;2023-04-03T03:28:46;135.03;;;8.07;;
4274;SDS011;2151;50.988;11.068;2023-04-03T03:31:12;138.97;;;7.97;;
4274;SDS011;2151;50.988;11.068;2023-04-03T03:33:39;138.80;;;8.80;;
4274;SDS011;2151;50.988;11.068;2023-04-03T03:36:06;137.30;;;8.90;;
4274;SDS011;2151;50.988;11.068;2023-04-03T03:38:32;139.80;;;8.63;;
4274;SDS011;2151;50.988;11.068;2023-04-03T03:40:59;133.60;;;8.33;;
4274;SDS011;2151;50.988;11.068;2023-04-03T03:43:25;133.77;;;8.27;;
4274;SDS011;2151;50.988;11.068;2023-04-03T03:45:52;134.93;;;8.20;;
4274;SDS011;2151;50.988;11.068;2023-04-03T03:48:19;143.50;;;8.57;;
4274;SDS011;2151;50.988;11.068;2023-04-03T03:50:47;134.50;;;9.00;;
4274;SDS011;2151;50.988;11.068;2023-04-03T03:53:14;137.47;;;9.03;;
4274;SDS011;2151;50.988;11.068;2023-04-03T03:55:41;132.60;;;8.70;;
4274;SDS011;2151;50.988;11.068;2023-04-03T03:58:07;137.43;;;8.97;;
4274;SDS011;2151;50.988;11.068;2023-04-03T04:00:34;139.80;;;9.10;;
4274;SDS011;2151;50.988;11.068;2023-04-03T04:03:01;134.17;;;8.00;;
4274;SDS011;2151;50.988;11.068;2023-04-03T04:05:28;137.63;;;9.10;;
4274;SDS011;2151;50.988;11.068;2023-04-03T04:07:54;133.17;;;8.10;;
4274;SDS011;2151;50.988;11.068;2023-04-03T04:10:21;136.90;;;8.53;;
4274;SDS011;2151;50.988;11.068;2023-04-03T04:12:47;134.80;;;8.90;;
4274;SDS011;2151;50.988;11.068;2023-04-03T04:15:15;135.57;;;9.07;;
4274;SDS011;2151;50.988;11.068;2023-04-03T04:17:42;133.67;;;8.70;;
4274;SDS011;2151;50.988;11.068;2023-04-03T04:20:08;138.67;;;9.07;;
4274;SDS011;2151;50.988;11.068;2023-04-03T04:22:35;136.00;;;8.77;;
4274;SDS011;2151;50.988;11.068;2023-04-03T04:25:02;140.10;;;9.57;;
4274;SDS011;2151;50.988;11.068;2023-04-03T04:27:28;135.60;;;8.17;;
4274;SDS011;2151;50.988;11.068;2023-04-03T04:29:55;135.73;;;8.70;;
4274;SDS011;2151;50.988;11.068;2023-04-03T04:32:24;144.67;;;8.93;;
4274;SDS011;2151;50.988;11.068;2023-04-03T04:34:51;139.87;;;9.30;;
4274;SDS011;2151;50.988;11.068;2023-04-03T04:37:17;139.33;;;8.37;;
4274;SDS011;2151;50.988;11.068;2023-04-03T04:39:44;134.83;;;9.50;;
4274;SDS011;2151;50.988;11.068;2023-04-03T04:42:11;132.97;;;8.57;;
4274;SDS011;2151;50.988;11.068;2023-04-03T04:44:41;139.33;;;9.70;;
4274;SDS011;2151;50.988;11.068;2023-04-03T04:47:07;136.67;;;8.97;;
4274;SDS011;2151;50.988;11.068;2023-04-03T04:49:34;135.53;;;9.50;;
4274;SDS011;2151;50.988;11.068;2023-04-03T04:52:00;135.50;;;9.20;;
4274;SDS011;2151;50.988;11.068;2023-04-03T04:54:27;145.53;;;9.30;;
4274;SDS011;2151;50.988;11.068;2023-04-03T04:56:53;143.23;;;9.00;;
4274;SDS011;2151;50.988;11.068;2023-04-03T04:59:20;134.40;;;9.10;;
4274;SDS011;2151;50.988;11.068;2023-04-03T05:01:47;133.23;;;8.50;;
4274;SDS011;2151;50.988;11.068;2023-04-03T05:04:14;143.57;;;9.90;;
4274;SDS011;2151;50.988;11.068;2023-04-03T05:06:41;134.30;;;9.33;;
4274;SDS011;2151;50.988;11.068;2023-04-03T05:09:07;133.67;;;8.70;;
4274;SDS011;2151;50.988;11.068;2023-04-03T05:11:35;134.30;;;9.47;;
4274;SDS011;2151;50.988;11.068;2023-04-03T05:14:01;139.37;;;9.60;;
4274;SDS011;2151;50.988;11.068;2023-04-03T05:16:29;136.77;;;8.60;;
4274;SDS011;2151;50.988;11.068;2023-04-03T05:18:56;137.27;;;8.87;;
4274;SDS011;2151;50.988;11.068;2023-04-03T05:21:22;136.10;;;9.40;;
4274;SDS011;2151;50.988;11.068;2023-04-03T05:23:51;138.07;;;9.07;;
4274;SDS011;2151;50.988;11.068;2023-04-03T05:26:17;137.80;;;9.23;;
4274;SDS011;2151;50.988;11.068;2023-04-03T05:28:44;136.67;;;9.43;;
4274;SDS011;2151;50.988;11.068;2023-04-03T05:31:11;139.20;;;9.10;;
4274;SDS011;2151;50.988;11.068;2023-04-03T05:33:37;135.47;;;9.63;;
4274;SDS011;2151;50.988;11.068;2023-04-03T05:36:04;135.90;;;9.37;;
4274;SDS011;2151;50.988;11.068;2023-04-03T05:38:31;135.57;;;9.23;;
4274;SDS011;2151;50.988;11.068;2023-04-03T05:40:58;138.47;;;9.33;;
4274;SDS011;2151;50.988;11.068;2023-04-03T05:43:25;139.83;;;9.30;;
4274;SDS011;2151;50.988;11.068;2023-04-03T05:45:51;135.57;;;9.50;;
4274;SDS011;2151;50.988;11.068;2023-04-03T05:48:18;135.57;;;9.77;;
4274;SDS011;2151;50.988;11.068;2023-04-03T05:50:45;139.87;;;9.90;;
4274;SDS011;2151;50.988;11.068;2023-04-03T05:53:22;135.00;;;9.10;;
4274;SDS011;2151;50.988;11.068;2023-04-03T05:55:52;136.37;;;9.00;;
4274;SDS011;2151;50.988;11.068;2023-04-03T05:58:20;134.50;;;9.70;;
4274;SDS011;2151;50.988;11.068;2023-04-03T06:00:46;134.27;;;8.57;;
4274;SDS011;2151;50.988;11.068;2023-04-03T06:03:13;145.00;;;8.87;;
4274;SDS011;2151;50.988;11.068;2023-04-03T06:05:39;134.97;;;8.43;;
4274;SDS011;2151;50.988;11.068;2023-04-03T06:08:06;134.60;;;8.93;;
4274;SDS011;2151;50.988;11.068;2023-04-03T06:10:33;134.67;;;9.47;;
4274;SDS011;2151;50.988;11.068;2023-04-03T06:12:59;136.07;;;8.57;;
4274;SDS011;2151;50.988;11.068;2023-04-03T06:15:26;137.07;;;10.70;;
4274;SDS011;2151;50.988;11.068;2023-04-03T06:17:53;135.60;;;8.33;;
4274;SDS011;2151;50.988;11.068;2023-04-03T06:20:20;134.07;;;8.43;;
4274;SDS011;2151;50.988;11.068;2023-04-03T06:22:47;132.17;;;7.93;;
4274;SDS011;2151;50.988;11.068;2023-04-03T06:25:13;136.27;;;8.30;;
4274;SDS011;2151;50.988;11.068;2023-04-03T06:27:40;132.40;;;7.87;;
4274;SDS011;2151;50.988;11.068;2023-04-03T06:30:07;133.97;;;7.90;;
4274;SDS011;2151;50.988;11.068;2023-04-03T06:32:34;134.53;;;8.37;;
4274;SDS011;2151;50.988;11.068;2023-04-03T06:35:00;135.20;;;7.90;;
4274;SDS011;2151;50.988;11.068;2023-04-03T06:37:27;142.13;;;8.13;;
4274;SDS011;2151;50.988;11.068;2023-04-03T06:39:55;136.87;;;7.80;;
4274;SDS011;2151;50.988;11.068;2023-04-03T06:42:21;135.10;;;8.40;;
4274;SDS011;2151;50.988;11.068;2023-04-03T06:44:48;133.30;;;7.77;;
4274;SDS011;2151;50.988;11.068;2023-04-03T06:47:15;134.03;;;7.97;;
4274;SDS011;2151;50.988;11.068;2023-04-03T06:49:42;133.90;;;8.00;;
4274;SDS011;2151;50.988;11.068;2023-04-03T06:52:09;135.97;;;8.40;;
4274;SDS011;2151;50.988;11.068;2023-04-03T06:54:36;139.47;;;8.33;;
4274;SDS011;2151;50.988;11.068;2023-04-03T06:57:02;133.37;;;7.93;;
4274;SDS011;2151;50.988;11.068;2023-04-03T06:59:29;133.37;;;8.30;;
4274;SDS011;2151;50.988;11.068;2023-04-03T07:01:56;137.40;;;8.90;;
4274;SDS011;2151;50.988;11.068;2023-04-03T07:04:22;135.90;;;9.50;;
4274;SDS011;2151;50.988;11.068;2023-04-03T07:06:49;135.97;;;9.43;;
4274;SDS011;2151;50.988;11.068;2023-04-03T07:09:16;135.07;;;9.13;;
4274;SDS011;2151;50.988;11.068;2023-04-03T07:11:43;140.03;;;10.00;;
4274;SDS011;2151;50.988;11.068;2023-04-03T07:14:09;141.90;;;10.20;;
4274;SDS011;2151;50.988;11.068;2023-04-03T07:16:36;143.23;;;10.53;;
4274;SDS011;2151;50.988;11.068;2023-04-03T07:19:06;136.60;;;9.43;;
4274;SDS011;2151;50.988;11.068;2023-04-03T07:21:34;141.57;;;10.30;;
4274;SDS011;2151;50.988;11.068;2023-04-03T07:24:01;137.07;;;9.80;;
4274;SDS011;2151;50.988;11.068;2023-04-03T07:26:28;140.77;;;9.60;;
4274;SDS011;2151;50.988;11.068;2023-04-03T07:28:54;136.87;;;8.53;;
4274;SDS011;2151;50.988;11.068;2023-04-03T07:31:21;136.27;;;9.33;;
4274;SDS011;2151;50.988;11.068;2023-04-03T07:33:47;134.17;;;8.63;;
4274;SDS011;2151;50.988;11.068;2023-04-03T07:36:15;135.43;;;8.90;;
4274;SDS011;2151;50.988;11.068;2023-04-03T07:38:44;138.60;;;9.07;;
4274;SDS011;2151;50.988;11.068;2023-04-03T07:41:15;136.30;;;8.57;;
4274;SDS011;2151;50.988;11.068;2023-04-03T07:43:44;134.37;;;7.97;;
4274;SDS011;2151;50.988;11.068;2023-04-03T07:46:11;135.87;;;8.30;;
4274;SDS011;2151;50.988;11.068;2023-04-03T07:48:38;132.87;;;8.10;;
4274;SDS011;2151;50.988;11.068;2023-04-03T07:51:05;132.23;;;7.40;;
4274;SDS011;2151;50.988;11.068;2023-04-03T07:53:31;133.67;;;8.30;;
4274;SDS011;2151;50.988;11.068;2023-04-03T07:55:58;135.40;;;7.80;;
4274;SDS011;2151;50.988;11.068;2023-04-03T07:58:25;136.40;;;8.10;;
4274;SDS011;2151;50.988;11.068;2023-04-03T08:00:52;133.47;;;7.80;;
4274;SDS011;2151;50.988;11.068;2023-04-03T08:03:18;133.63;;;7.50;;
4274;SDS011;2151;50.988;11.068;2023-04-03T08:05:46;132.47;;;7.50;;
4274;SDS011;2151;50.988;11.068;2023-04-03T08:08:15;132.10;;;7.23;;
4274;SDS011;2151;50.988;11.068;2023-04-03T08:10:50;131.20;;;7.40;;
4274;SDS011;2151;50.988;11.068;2023-04-03T08:13:18;131.77;;;7.77;;
4274;SDS011;2151;50.988;11.068;2023-04-03T08:15:45;136.63;;;7.60;;
4274;SDS011;2151;50.988;11.068;2023-04-03T08:18:11;131.10;;;7.17;;
4274;SDS011;2151;50.988;11.068;2023-04-03T08:20:39;131.57;;;7.17;;
4274;SDS011;2151;50.988;11.068;2023-04-03T08:23:07;133.10;;;7.27;;
4274;SDS011;2151;50.988;11.068;2023-04-03T08:25:37;134.23;;;7.50;;
4274;SDS011;2151;50.988;11.068;2023-04-03T08:28:04;135.23;;;7.20;;
4274;SDS011;2151;50.988;11.068;2023-04-03T08:30:31;136.00;;;7.00;;
4274;SDS011;2151;50.988;11.068;2023-04-03T08:32:59;129.37;;;7.17;;
4274;SDS011;2151;50.988;11.068;2023-04-03T08:35:27;132.10;;;7.07;;
4274;SDS011;2151;50.988;11.068;2023-04-03T08:37:54;129.83;;;7.33;;
4274;SDS011;2151;50.988;11.068;2023-04-03T08:40:20;127.70;;;6.80;;
4274;SDS011;2151;50.988;11.068;2023-04-03T08:48:26;128.37;;;6.63;;
4274;SDS011;2151;50.988;11.068;2023-04-03T08:50:55;127.43;;;7.20;;
4274;SDS011;2151;50.988;11.068;2023-04-03T08:53:29;130.10;;;6.67;;
4274;SDS011;2151;50.988;11.068;2023-04-03T08:55:59;129.47;;;6.63;;
4274;SDS011;2151;50.988;11.068;2023-04-03T08:58:30;128.73;;;6.40;;
4274;SDS011;2151;50.988;11.068;2023-04-03T09:01:06;128.17;;;6.57;;
4274;SDS011;2151;50.988;11.068;2023-04-03T09:03:40;141.13;;;7.43;;
4274;SDS011;2151;50.988;11.068;2023-04-03T09:06:12;126.77;;;6.50;;
4274;SDS011;2151;50.988;11.068;2023-04-03T09:16:56;130.93;;;6.70;;
4274;SDS011;2151;50.988;11.068;2023-04-03T09:21:56;128.80;;;6.57;;
4274;SDS011;2151;50.988;11.068;2023-04-03T09:24:23;128.50;;;6.90;;
4274;SDS011;2151;50.988;11.068;2023-04-03T09:26:55;130.00;;;7.03;;
4274;SDS011;2151;50.988;11.068;2023-04-03T09:29:26;127.33;;;6.50;;
4274;SDS011;2151;50.988;11.068;2023-04-03T09:31:56;127.80;;;6.40;;
4274;SDS011;2151;50.988;11.068;2023-04-03T09:34:41;126.50;;;6.57;;
4274;SDS011;2151;50.988;11.068;2023-04-03T09:37:08;132.00;;;6.47;;
4274;SDS011;2151;50.988;11.068;2023-04-03T09:39:53;127.67;;;6.80;;
4274;SDS011;2151;50.988;11.068;2023-04-03T09:42:21;127.33;;;6.60;;
4274;SDS011;2151;50.988;11.068;2023-04-03T09:44:56;126.03;;;6.23;;
4274;SDS011;2151;50.988;11.068;2023-04-03T09:47:25;128.90;;;7.23;;
4274;SDS011;2151;50.988;11.068;2023-04-03T09:52:42;128.20;;;7.17;;
4274;SDS011;2151;50.988;11.068;2023-04-03T09:55:15;127.27;;;6.33;;
4274;SDS011;2151;50.988;11.068;2023-04-03T09:57:57;125.97;;;6.23;;
4274;SDS011;2151;50.988;11.068;2023-04-03T10:00:26;128.87;;;7.10;;
4274;SDS011;2151;50.988;11.068;2023-04-03T10:02:55;136.43;;;7.80;;
4274;SDS011;2151;50.988;11.068;2023-04-03T10:05:27;131.90;;;7.47;;
4274;SDS011;2151;50.988;11.068;2023-04-03T10:08:31;128.43;;;6.53;;
4274;SDS011;2151;50.988;11.068;2023-04-03T10:11:06;126.33;;;6.47;;
4274;SDS011;2151;50.988;11.068;2023-04-03T10:13:36;128.40;;;6.70;;
4274;SDS011;2151;50.988;11.068;2023-04-03T10:16:18;131.97;;;6.70;;
4274;SDS011;2151;50.988;11.068;2023-04-03T10:21:33;129.37;;;6.60;;
4274;SDS011;2151;50.988;11.068;2023-04-03T10:34:43;127.30;;;6.63;;
4274;SDS011;2151;50.988;11.068;2023-04-03T10:37:30;127.97;;;7.10;;
4274;SDS011;2151;50.988;11.068;2023-04-03T10:53:37;127.57;;;6.73;;
4274;SDS011;2151;50.988;11.068;2023-04-03T10:56:09;127.33;;;6.70;;
4274;SDS011;2151;50.988;11.068;2023-04-03T10:58:41;130.80;;;6.90;;
4274;SDS011;2151;50.988;11.068;2023-04-03T11:01:16;130.80;;;6.50;;
4274;SDS011;2151;50.988;11.068;2023-04-03T11:03:47;127.27;;;6.90;;
4274;SDS011;2151;50.988;11.068;2023-04-03T11:06:17;129.27;;;6.57;;
4274;SDS011;2151;50.988;11.068;2023-04-03T11:08:45;126.00;;;6.57;;
4274;SDS011;2151;50.988;11.068;2023-04-03T11:11:16;128.17;;;6.50;;
4274;SDS011;2151;50.988;11.068;2023-04-03T11:16:40;125.97;;;6.63;;
4274;SDS011;2151;50.988;11.068;2023-04-03T11:30:09;125.87;;;6.00;;
4274;SDS011;2151;50.988;11.068;2023-04-03T11:35:35;126.30;;;6.40;;
4274;SDS011;2151;50.988;11.068;2023-04-03T11:38:03;127.50;;;6.40;;
4274;SDS011;2151;50.988;11.068;2023-04-03T11:40:34;124.37;;;6.17;;
4274;SDS011;2151;50.988;11.068;2023-04-03T11:45:37;127.00;;;6.50;;
4274;SDS011;2151;50.988;11.068;2023-04-03T11:53:47;125.03;;;6.40;;
4274;SDS011;2151;50.988;11.068;2023-04-03T12:04:14;124.60;;;5.67;;
4274;SDS011;2151;50.988;11.068;2023-04-03T12:06:47;122.70;;;5.83;;
4274;SDS011;2151;50.988;11.068;2023-04-03T12:10:01;122.50;;;6.03;;
4274;SDS011;2151;50.988;11.068;2023-04-03T12:14:55;124.30;;;5.80;;
4274;SDS011;2151;50.988;11.068;2023-04-03T12:17:26;126.57;;;7.07;;
4274;SDS011;2151;50.988;11.068;2023-04-03T12:19:53;125.10;;;6.20;;
4274;SDS011;2151;50.988;11.068;2023-04-03T12:22:20;123.87;;;6.13;;
4274;SDS011;2151;50.988;11.068;2023-04-03T12:24:48;128.20;;;5.87;;
4274;SDS011;2151;50.988;11.068;2023-04-03T12:33:01;127.53;;;6.20;;
4274;SDS011;2151;50.988;11.068;2023-04-03T12:46:45;126.30;;;6.30;;
4274;SDS011;2151;50.988;11.068;2023-04-03T12:51:46;122.60;;;5.97;;
4274;SDS011;2151;50.988;11.068;2023-04-03T12:54:14;124.60;;;6.00;;
4274;SDS011;2151;50.988;11.068;2023-04-03T12:57:08;122.13;;;5.47;;
4274;SDS011;2151;50.988;11.068;2023-04-03T12:59:36;125.20;;;6.00;;
4274;SDS011;2151;50.988;11.068;2023-04-03T13:02:10;123.17;;;5.77;;
4274;SDS011;2151;50.988;11.068;2023-04-03T13:04:43;125.60;;;5.93;;
4274;SDS011;2151;50.988;11.068;2023-04-03T13:07:18;124.13;;;5.57;;
4274;SDS011;2151;50.988;11.068;2023-04-03T13:09:54;123.60;;;5.70;;
4274;SDS011;2151;50.988;11.068;2023-04-03T13:12:22;122.93;;;5.87;;
4274;SDS011;2151;50.988;11.068;2023-04-03T13:14:56;125.03;;;5.90;;
4274;SDS011;2151;50.988;11.068;2023-04-03T13:17:25;123.67;;;6.20;;
4274;SDS011;2151;50.988;11.068;2023-04-03T13:19:52;125.67;;;6.50;;
4274;SDS011;2151;50.988;11.068;2023-04-03T13:24:51;123.63;;;6.20;;
4274;SDS011;2151;50.988;11.068;2023-04-03T13:27:20;125.77;;;6.73;;
4274;SDS011;2151;50.988;11.068;2023-04-03T13:29:51;124.67;;;6.27;;
4274;SDS011;2151;50.988;11.068;2023-04-03T13:32:20;124.17;;;6.00;;
4274;SDS011;2151;50.988;11.068;2023-04-03T13:34:49;124.07;;;6.50;;
4274;SDS011;2151;50.988;11.068;2023-04-03T13:37:23;124.57;;;6.30;;
4274;SDS011;2151;50.988;11.068;2023-04-03T13:40:12;127.07;;;6.20;;
4274;SDS011;2151;50.988;11.068;2023-04-03T13:42:40;127.63;;;6.40;;
4274;SDS011;2151;50.988;11.068;2023-04-03T13:47:53;124.33;;;5.87;;
4274;SDS011;2151;50.988;11.068;2023-04-03T13:59:06;127.57;;;6.57;;
4274;SDS011;2151;50.988;11.068;2023-04-03T14:01:53;128.30;;;6.70;;
4274;SDS011;2151;50.988;11.068;2023-04-03T14:04:26;125.30;;;6.30;;
4274;SDS011;2151;50.988;11.068;2023-04-03T14:06:54;126.87;;;6.20;;
4274;SDS011;2151;50.988;11.068;2023-04-03T14:09:22;125.30;;;6.00;;
4274;SDS011;2151;50.988;11.068;2023-04-03T14:11:50;125.47;;;6.10;;
4274;SDS011;2151;50.988;11.068;2023-04-03T14:14:21;124.23;;;6.40;;
4274;SDS011;2151;50.988;11.068;2023-04-03T14:16:58;126.67;;;6.43;;
4274;SDS011;2151;50.988;11.068;2023-04-03T14:19:27;127.17;;;6.60;;
4274;SDS011;2151;50.988;11.068;2023-04-03T14:22:06;128.07;;;6.63;;
4274;SDS011;2151;50.988;11.068;2023-04-03T14:25:03;125.43;;;6.43;;
4274;SDS011;2151;50.988;11.068;2023-04-03T14:27:34;125.63;;;6.40;;
4274;SDS011;2151;50.988;11.068;2023-04-03T14:30:05;128.57;;;6.23;;
4274;SDS011;2151;50.988;11.068;2023-04-03T14:32:36;128.27;;;6.37;;
4274;SDS011;2151;50.988;11.068;2023-04-03T14:35:03;126.13;;;6.43;;
4274;SDS011;2151;50.988;11.068;2023-04-03T14:37:31;126.07;;;6.90;;
4274;SDS011;2151;50.988;11.068;2023-04-03T14:39:59;128.50;;;6.60;;
4274;SDS011;2151;50.988;11.068;2023-04-03T14:42:27;126.47;;;6.43;;
4274;SDS011;2151;50.988;11.068;2023-04-03T14:44:57;128.40;;;6.33;;
4274;SDS011;2151;50.988;11.068;2023-04-03T14:47:26;126.10;;;6.37;;
4274;SDS011;2151;50.988;11.068;2023-04-03T14:49:57;125.17;;;6.27;;
4274;SDS011;2151;50.988;11.068;2023-04-03T14:52:29;126.50;;;6.30;;
4274;SDS011;2151;50.988;11.068;2023-04-03T14:55:00;125.27;;;6.00;;
4274;SDS011;2151;50.988;11.068;2023-04-03T14:57:27;126.23;;;6.30;;
4274;SDS011;2151;50.988;11.068;2023-04-03T14:59:55;129.20;;;6.03;;
4274;SDS011;2151;50.988;11.068;2023-04-03T15:02:35;128.87;;;6.47;;
4274;SDS011;2151;50.988;11.068;2023-04-03T15:05:04;127.97;;;6.23;;
4274;SDS011;2151;50.988;11.068;2023-04-03T15:07:36;127.33;;;6.60;;
4274;SDS011;2151;50.988;11.068;2023-04-03T15:10:24;125.10;;;6.53;;
4274;SDS011;2151;50.988;11.068;2023-04-03T15:12:53;127.17;;;6.10;;
4274;SDS011;2151;50.988;11.068;2023-04-03T15:15:21;126.60;;;6.57;;
4274;SDS011;2151;50.988;11.068;2023-04-03T15:17:52;127.23;;;6.43;;
4274;SDS011;2151;50.988;11.068;2023-04-03T15:20:22;127.77;;;6.60;;
4274;SDS011;2151;50.988;11.068;2023-04-03T15:22:50;126.57;;;6.53;;
4274;SDS011;2151;50.988;11.068;2023-04-03T15:25:17;130.23;;;7.20;;
4274;SDS011;2151;50.988;11.068;2023-04-03T15:27:44;126.93;;;6.63;;
4274;SDS011;2151;50.988;11.068;2023-04-03T15:30:13;125.57;;;6.17;;
4274;SDS011;2151;50.988;11.068;2023-04-03T15:32:41;129.17;;;6.90;;
4274;SDS011;2151;50.988;11.068;2023-04-03T15:35:08;128.90;;;6.80;;
4274;SDS011;2151;50.988;11.068;2023-04-03T15:37:35;128.30;;;6.40;;
4274;SDS011;2151;50.988;11.068;2023-04-03T15:40:02;125.67;;;6.30;;
4274;SDS011;2151;50.988;11.068;2023-04-03T15:42:30;126.00;;;6.70;;
4274;SDS011;2151;50.988;11.068;2023-04-03T15:44:56;127.03;;;6.50;;
4274;SDS011;2151;50.988;11.068;2023-04-03T15:47:24;126.60;;;7.20;;
4274;SDS011;2151;50.988;11.068;2023-04-03T15:49:51;127.40;;;6.30;;
4274;SDS011;2151;50.988;11.068;2023-04-03T15:52:18;126.67;;;6.43;;
4274;SDS011;2151;50.988;11.068;2023-04-03T15:54:44;125.27;;;6.27;;
4274;SDS011;2151;50.988;11.068;2023-04-03T15:57:11;126.00;;;6.57;;
4274;SDS011;2151;50.988;11.068;2023-04-03T15:59:37;127.67;;;7.00;;
4274;SDS011;2151;50.988;11.068;2023-04-03T16:02:05;127.97;;;6.70;;
4274;SDS011;2151;50.988;11.068;2023-04-03T16:04:32;130.17;;;7.00;;
4274;SDS011;2151;50.988;11.068;2023-04-03T16:07:03;128.50;;;6.40;;
4274;SDS011;2151;50.988;11.068;2023-04-03T16:09:31;128.47;;;6.80;;
4274;SDS011;2151;50.988;11.068;2023-04-03T16:11:58;127.07;;;6.20;;
4274;SDS011;2151;50.988;11.068;2023-04-03T16:14:24;127.57;;;6.80;;
4274;SDS011;2151;50.988;11.068;2023-04-03T16:16:51;129.30;;;6.80;;
4274;SDS011;2151;50.988;11.068;2023-04-03T16:19:17;124.80;;;6.40;;
4274;SDS011;2151;50.988;11.068;2023-04-03T16:21:44;125.87;;;6.43;;
4274;SDS011;2151;50.988;11.068;2023-04-03T16:24:11;126.27;;;6.27;;
4274;SDS011;2151;50.988;11.068;2023-04-03T16:26:41;126.60;;;6.57;;
4274;SDS011;2151;50.988;11.068;2023-04-03T16:29:07;128.10;;;6.53;;
4274;SDS011;2151;50.988;11.068;2023-04-03T16:31:34;126.67;;;6.40;;
4274;SDS011;2151;50.988;11.068;2023-04-03T16:34:01;127.87;;;6.63;;
4274;SDS011;2151;50.988;11.068;2023-04-03T16:36:28;127.10;;;7.37;;
4274;SDS011;2151;50.988;11.068;2023-04-03T16:38:55;128.17;;;6.90;;
4274;SDS011;2151;50.988;11.068;2023-04-03T16:41:21;127.17;;;6.73;;